Accueil
METAR-TAF:

METAR-TAF

Aéroports :

King Cove, Alaska, États-Unis

latitude: 55-06-59N, longitude: 162-15-58W, altitude: 47 m

Observation

Le bulletin a été fait il y a 12 minutes, à 04:56 UTC
Vent 6 kt de ouest/sud-ouest
Température 0°C
Humidité 100%
Pression 987 hPa
Visibilité: 14.5 km
Quelques nuages à une hauteur de 900 ft
Nuages épars à une hauteur de 1700 ft
Nuages épars à une hauteur de 2600 ft
pluie faible

METAR: PAVC 080456Z AUTO 24006KT 9SM -RA FEW009 SCT017 SCT026 00/00 A2914 RMK AO2 RAE26B54SNB26E54 SLP870 P0002 T00000000 FZRANO

Heure: 20:08 (05:08 UTC)


TAF: absent

Observations et prévisions météorologiques de plus de 4000 aéroports (messages METAR et TAF).

Les stations disponibles sont représentées par des disques jaunes et rouges sur la carte.

Passer la souris dessus pour voir le nom de la station.

Cliquer dessus pour voir les observations et prévisions météorologiques.

Pour changer de carte: cliquez sur les boutons verts avec une croix noire pour zoomer, sur le bouton vert avec un tiret pour effectuer un zoom arrière, ou sur les flèches vertes pour les cartes adjacentes.


METAR-TAF: